Currently 78°F in San Jacinto, California, USA
78°F
78°F / 57°F
calm
0.00"
Friday, May 17, 2024 4:32 PM PDT

San Jacinto, California Weather Summary
Last 36 Hours

Temperature Winds Hourly Humidity Dewpoint
Time Report Norm Report Norm Max Gusts Precip. Rpt. Norm Rpt. Norm Pressure
1Fri 04:32 PM  77.5°F  78°F  calm  5 mph  5 mph  0.00"  50%  39%  57°F  50°F  29.85"
Fri 04:00 PM  77.5°F  78°F  calm  5 mph  3 mph  0.00"  50%  38%  57°F  49°F  29.86"
2Fri 03:50 PM  77.7°F  78°F  calm  4 mph  none  ----  51%  37%  58°F  49°F  29.86"
Fri 03:00 PM  75.7°F  79°F  calm  3 mph  9 mph  0.00"  52%  36%  56°F  49°F  29.88"
Fri 02:00 PM  73.6°F  78°F  calm  3 mph  6 mph  0.00"  56%  36%  56°F  48°F  29.91"
Fri 01:00 PM  70.2°F  76°F  calm  2 mph  2 mph  0.00"  61%  39%  56°F  48°F  29.93"
Fri 12:00 PM  67.5°F  73°F  calm  2 mph  none  0.00"  66%  44%  55°F  49°F  29.94"
Fri 11:00 AM  62.8°F  70°F  calm  1 mph  none  0.00"  74%  51%  54°F  50°F  29.96"
Fri 10:00 AM  61.2°F  66°F  calm  1 mph  none  0.00"  78%  59%  54°F  51°F  29.97"
Fri 09:00 AM  59.4°F  62°F  calm  1 mph  none  0.00"  83%  67%  54°F  51°F  29.96"
Fri 08:00 AM  58.5°F  59°F  calm  1 mph  none  0.00"  87%  74%  55°F  50°F  29.95"
Fri 07:00 AM  57.9°F  56°F  calm  1 mph  none  0.00"  87%  79%  54°F  49°F  29.95"
Fri 06:00 AM  57.6°F  55°F  calm  1 mph  none  0.00"  88%  80%  54°F  49°F  29.95"
Fri 05:00 AM  57.0°F  55°F  calm  1 mph  none  0.00"  89%  79%  54°F  49°F  29.95"
Fri 04:00 AM  57.0°F  56°F  calm  1 mph  none  0.00"  90%  79%  54°F  49°F  29.95"
Fri 03:00 AM  56.8°F  57°F  calm  1 mph  1 mph  0.00"  90%  78%  54°F  50°F  29.96"
3Fri 02:29 AM  56.8°F  57°F  calm  1 mph  none  ----  89%  77%  53°F  50°F  29.96"
Fri 02:00 AM  57.2°F  58°F  calm  1 mph  2 mph  0.00"  89%  76%  54°F  50°F  29.96"
Fri 01:00 AM  57.7°F  59°F  calm  1 mph  5 mph  0.00"  88%  74%  54°F  50°F  29.97"
Fri 12:01 AM  58.1°F  60°F  calm  1 mph  6 mph  0.00"  87%  72%  54°F  50°F  29.97"
Thu 11:00 PM  57.9°F  61°F  calm  1 mph  11 mph  0.00"  86%  70%  54°F  51°F  29.95"
Thu 10:00 PM  60.4°F  63°F  calm  1 mph  2 mph  0.00"  79%  67%  54°F  51°F  29.94"
Thu 09:00 PM  63.7°F  64°F  calm  1 mph  6 mph  0.00"  74%  63%  55°F  51°F  29.91"
Thu 08:00 PM  66.4°F  67°F  1 mph SW  2 mph  10 mph  0.00"  69%  57%  56°F  51°F  29.90"
Thu 07:00 PM  69.4°F  71°F  calm  3 mph  9 mph  0.00"  63%  49%  56°F  51°F  29.88"
Thu 06:00 PM  73.2°F  75°F  calm  4 mph  7 mph  0.00"  57%  43%  57°F  50°F  29.86"
Thu 05:00 PM  77.2°F  77°F  calm  5 mph  1 mph  0.00"  48%  39%  55°F  49°F  29.87"
Thu 04:00 PM  76.3°F  79°F  calm  5 mph  none  0.00"  51%  37%  56°F  49°F  29.88"
Thu 03:00 PM  73.9°F  79°F  calm  4 mph  1 mph  0.00"  54%  35%  56°F  48°F  29.89"
Thu 02:00 PM  72.1°F  78°F  calm  3 mph  3 mph  0.00"  57%  36%  56°F  48°F  29.91"
Thu 01:00 PM  69.4°F  76°F  calm  2 mph  10 mph  0.00"  62%  39%  55°F  48°F  29.93"
Thu 12:00 PM  66.7°F  74°F  calm  2 mph  none  0.00"  68%  44%  55°F  49°F  29.95"
Thu 11:00 AM  63.0°F  70°F  calm  1 mph  none  0.00"  75%  51%  55°F  50°F  29.96"
Thu 10:00 AM  60.3°F  66°F  calm  1 mph  none  0.00"  82%  59%  55°F  51°F  29.95"
Thu 09:00 AM  58.1°F  62°F  calm  1 mph  none  0.00"  91%  68%  55°F  51°F  29.93"
Thu 08:00 AM  56.5°F  59°F  calm  1 mph  none  0.00"  93%  75%  54°F  50°F  29.93"
Thu 07:00 AM  55.9°F  56°F  calm  1 mph  none  0.00"  92%  80%  54°F  49°F  29.94"
Thu 06:00 AM  55.9°F  55°F  calm  1 mph  none  0.01"  92%  81%  54°F  49°F  29.94"
Thu 05:00 AM  56.3°F  55°F  calm  1 mph  none  0.00"  91%  80%  54°F  49°F  29.94"

  1. Current weather data. No green row appears if the current weather data is also the high or low for the current day.
  2. High temperature for the current day.
  3. Low temperature for the current day.

The San Jacinto, California weather pages are a service of WeatherCurrents. San Jacinto is located in the heart of the San Jacinto Valley, near Hemet, the Soboba Casino, and at the foot of the San Jacinto Mountains.
Copyright ©2024  WeatherCurrents. All rights reserved. - Submit questions and comments - Privacy Policy

This page automatically refreshes every 10 minutes.